Terminal Aerodrome Forecast
Issued by NWS Flagstaff, AZ

Home | Current Version | Previous Version | Text Only | Print | Product List | Glossary On
Versions: 1 2 3 4 5 6 7 8 9 10 11 12 13 14 15 16 17 18 19 20 21 22 23 24 25 26 27 28 29
000
FTUS45 KFGZ 061120
TAFFLG
TAF
KFLG 061120Z 0612/0712 00000KT P6SM VCFG FEW009 SCT200
      TEMPO 0612/0614 3SM BR BKN009
     FM061400 23007KT P6SM SCT015
     FM061800 23014G24KT P6SM FEW050 SCT150
     FM070100 22005KT P6SM FEW150=

USA.gov is the U.S. government's official web portal to all federal, state and local government web resources and services.